TimePDT,TemperatureF,Dew PointF,Humidity,Sea Level PressureIn,VisibilityMPH,Wind Direction,Wind SpeedMPH,Gust SpeedMPH,PrecipitationIn,Events,Conditions,WindDirDegrees,DateUTC
12:53 AM,64.0,44.1,48,29.89,10.0,Calm,Calm,-,N/A,,Clear,0,2012-11-01 07:53:00
1:53 AM,64.9,42.1,43,29.89,10.0,WNW,3.5,-,N/A,,Clear,290,2012-11-01 08:53:00
2:53 AM,60.1,44.1,55,29.88,10.0,Calm,Calm,-,N/A,,Clear,0,2012-11-01 09:53:00
3:53 AM,62.1,43.0,50,29.88,10.0,Calm,Calm,-,N/A,,Clear,0,2012-11-01 10:53:00
4:53 AM,60.1,43.0,53,29.88,10.0,Calm,Calm,-,N/A,,Clear,0,2012-11-01 11:53:00
5:53 AM,62.1,39.0,43,29.88,10.0,Calm,Calm,-,N/A,,Clear,0,2012-11-01 12:53:00
6:53 AM,60.1,39.0,46,29.89,10.0,Calm,Calm,-,N/A,,Clear,0,2012-11-01 13:53:00
7:53 AM,60.1,41.0,49,29.91,10.0,SW,3.5,-,N/A,,Clear,230,2012-11-01 14:53:00
8:53 AM,66.0,37.9,36,29.92,10.0,West,3.5,-,N/A,,Scattered Clouds,270,2012-11-01 15:53:00
9:53 AM,73.9,33.1,22,29.92,10.0,Calm,Calm,-,N/A,,Scattered Clouds,0,2012-11-01 16:53:00
10:53 AM,80.1,33.1,18,29.91,10.0,SSE,4.6,-,N/A,,Clear,150,2012-11-01 17:53:00
11:53 AM,82.9,32.0,16,29.89,10.0,SSE,5.8,-,N/A,,Scattered Clouds,150,2012-11-01 18:53:00
12:53 PM,84.9,30.0,14,29.87,10.0,ENE,4.6,-,N/A,,Scattered Clouds,70,2012-11-01 19:53:00
1:53 PM,86.0,28.9,13,29.84,10.0,SSE,6.9,-,N/A,,Scattered Clouds,150,2012-11-01 20:53:00
2:53 PM,87.1,28.9,12,29.82,10.0,East,4.6,-,N/A,,Scattered Clouds,80,2012-11-01 21:53:00
3:53 PM,86.0,30.0,13,29.82,10.0,Variable,3.5,-,N/A,,Scattered Clouds,0,2012-11-01 22:53:00
4:53 PM,84.9,33.1,16,29.82,10.0,East,6.9,-,N/A,,Mostly Cloudy,100,2012-11-01 23:53:00
5:53 PM,82.0,36.0,19,29.82,10.0,Calm,Calm,-,N/A,,Mostly Cloudy,0,2012-11-02 00:53:00
6:53 PM,78.1,39.9,25,29.83,10.0,NW,3.5,-,N/A,,Clear,310,2012-11-02 01:53:00
7:53 PM,78.1,39.9,25,29.84,10.0,Calm,Calm,-,N/A,,Clear,0,2012-11-02 02:53:00
8:53 PM,75.9,41.0,29,29.85,10.0,NW,10.4,-,N/A,,Clear,320,2012-11-02 03:53:00
9:53 PM,73.0,41.0,31,29.86,10.0,NW,6.9,-,N/A,,Clear,310,2012-11-02 04:53:00
10:53 PM,72.0,39.9,31,29.86,10.0,Calm,Calm,-,N/A,,Clear,0,2012-11-02 05:53:00
11:53 PM,68.0,41.0,37,29.85,10.0,Calm,Calm,-,N/A,,Clear,0,2012-11-02 06:53:00